Time;durP1;ratioP1;P1;durP2;ratioP2;P2;SDS_P1;SDS_P2;PMS_P1;PMS_P2;Temp;Humidity;BMP_temperature;BMP_pressure;BME280_temperature;BME280_humidity;BME280_pressure;Samples;Min_cycle;Max_cycle;Signal;HPM_P1;HPM_P2
2022/05/21 00:00:20;;;;;;;21.13;8.27;;;11.00;99.90;;;;;;4964670;28;20026;-83
2022/05/21 00:02:47;;;;;;;20.58;8.68;;;11.00;99.90;;;;;;4981217;28;20012;-83
2022/05/21 00:05:13;;;;;;;18.20;7.45;;;11.00;99.90;;;;;;4967631;28;20030;-83
2022/05/21 00:07:38;;;;;;;14.52;6.65;;;10.90;99.90;;;;;;5000392;28;20033;-83
2022/05/21 00:10:07;;;;;;;17.08;7.22;;;11.00;99.90;;;;;;5000262;28;20042;-83
2022/05/21 00:12:33;;;;;;;14.65;6.93;;;11.10;99.90;;;;;;5000443;28;20010;-83
2022/05/21 00:14:59;;;;;;;19.85;7.65;;;11.10;99.90;;;;;;4983422;28;20051;-84
2022/05/21 00:17:25;;;;;;;18.38;7.35;;;11.20;99.90;;;;;;4983464;28;20014;-84
2022/05/21 00:19:50;;;;;;;23.33;7.40;;;11.40;99.90;;;;;;4983506;28;20042;-83
2022/05/21 00:22:16;;;;;;;22.77;7.40;;;11.40;99.90;;;;;;4983323;28;20094;-83
2022/05/21 00:24:42;;;;;;;14.18;6.05;;;11.60;99.90;;;;;;5000142;28;20039;-83
2022/05/21 00:27:07;;;;;;;17.75;6.57;;;11.60;99.90;;;;;;4983344;28;20026;-84
2022/05/21 00:29:34;;;;;;;14.65;5.78;;;11.60;99.90;;;;;;4999624;28;20019;-83
2022/05/21 00:32:00;;;;;;;18.52;6.90;;;11.70;99.90;;;;;;5000013;28;20027;-83
2022/05/21 00:34:26;;;;;;;20.60;6.50;;;11.70;99.90;;;;;;4999054;28;20062;-83
2022/05/21 00:36:51;;;;;;;16.80;5.70;;;11.70;99.90;;;;;;4983814;28;20011;-84
2022/05/21 00:39:17;;;;;;;14.98;6.25;;;11.90;99.90;;;;;;5001048;28;20011;-84
2022/05/21 00:41:43;;;;;;;14.70;5.70;;;11.90;99.90;;;;;;5001428;28;20011;-84
2022/05/21 00:44:09;;;;;;;18.92;6.50;;;12.00;99.90;;;;;;5001305;28;20019;-84
2022/05/21 00:46:40;;;;;;;15.57;6.88;;;12.00;99.90;;;;;;5000627;28;20018;-84
2022/05/21 00:49:20;;;;;;;16.65;6.63;;;12.10;99.90;;;;;;4999377;28;20019;-83
2022/05/21 00:52:08;;;;;;;11.95;5.57;;;12.10;99.90;;;;;;4982867;28;21294;-83
2022/05/21 00:54:38;;;;;;;14.43;5.97;;;12.20;99.90;;;;;;5006473;28;20046;-84
2022/05/21 00:57:03;;;;;;;;;;;12.20;99.90;;;;;;5019280;28;20014;-84
2022/05/21 00:59:48;;;;;;;17.63;5.70;;;12.30;99.90;;;;;;5018897;28;19933;-83
2022/05/21 01:02:21;;;;;;;15.88;6.28;;;12.30;99.90;;;;;;5018893;28;20041;-83
2022/05/21 01:04:48;;;;;;;18.67;6.88;;;12.40;99.90;;;;;;5018659;28;20018;-83
2022/05/21 01:07:15;;;;;;;15.38;6.20;;;12.40;99.90;;;;;;5001885;28;20019;-83
2022/05/21 01:09:53;;;;;;;18.67;6.50;;;12.40;99.90;;;;;;5018912;28;20015;-82
2022/05/21 01:12:21;;;;;;;17.55;5.50;;;12.40;99.90;;;;;;5018843;28;20030;-83
2022/05/21 01:14:49;;;;;;;18.13;5.65;;;12.40;99.90;;;;;;5020726;28;20061;-83
2022/05/21 01:17:17;;;;;;;14.30;5.32;;;12.40;99.90;;;;;;5026973;28;20006;-83
2022/05/21 01:20:02;;;;;;;19.13;5.10;;;12.50;99.90;;;;;;5018902;28;20018;-83
2022/05/21 01:22:40;;;;;;;15.88;5.22;;;12.50;99.90;;;;;;5018086;28;20018;-83
2022/05/21 01:25:06;;;;;;;16.40;4.50;;;12.50;99.90;;;;;;5008959;28;20082;-83
2022/05/21 01:27:32;;;;;;;17.63;5.32;;;12.50;99.90;;;;;;5001021;28;20022;-83
2022/05/21 01:30:01;;;;;;;12.65;4.32;;;12.50;99.90;;;;;;5018037;28;20061;-83
2022/05/21 01:32:28;;;;;;;20.38;4.65;;;12.50;99.90;;;;;;5030449;28;20018;-83
2022/05/21 01:34:54;;;;;;;11.02;4.32;;;12.50;99.90;;;;;;5037579;28;20046;-83
2022/05/21 01:37:19;;;;;;;15.25;4.53;;;12.50;99.90;;;;;;5037892;28;20157;-83
2022/05/21 01:39:45;;;;;;;17.83;4.22;;;12.60;99.90;;;;;;5019627;28;20033;-83
2022/05/21 01:42:20;;;;;;;16.05;3.90;;;12.60;99.90;;;;;;5017982;28;20014;-84
2022/05/21 01:44:52;;;;;;;17.45;3.47;;;12.60;99.90;;;;;;5018051;28;20034;-83
2022/05/21 01:47:18;;;;;;;12.95;3.22;;;12.60;99.90;;;;;;5017998;28;20002;-83
2022/05/21 01:49:44;;;;;;;11.77;3.38;;;12.60;99.90;;;;;;5031846;28;20025;-83
2022/05/21 01:52:11;;;;;;;15.15;3.22;;;12.60;99.90;;;;;;5020534;28;20018;-83
2022/05/21 01:54:37;;;;;;;12.68;3.50;;;12.70;99.90;;;;;;5006212;28;20053;-83
2022/05/21 01:57:05;;;;;;;15.75;3.20;;;12.70;99.90;;;;;;5016499;28;20018;-83
2022/05/21 01:59:30;;;;;;;17.30;3.78;;;12.70;99.90;;;;;;5017596;28;20014;-83
2022/05/21 02:01:56;;;;;;;14.60;3.05;;;12.70;99.90;;;;;;5016912;28;20009;-83
2022/05/21 02:04:22;;;;;;;10.88;2.80;;;12.70;99.90;;;;;;5017727;28;20042;-84
2022/05/21 02:06:48;;;;;;;15.38;3.20;;;12.70;99.90;;;;;;5017801;28;20021;-84
2022/05/21 02:09:14;;;;;;;20.83;3.88;;;12.70;99.90;;;;;;5017747;28;20065;-84
2022/05/21 02:11:40;;;;;;;17.60;3.03;;;12.60;99.90;;;;;;5000813;28;20034;-83
2022/05/21 02:14:07;;;;;;;12.65;3.83;;;12.70;99.90;;;;;;5017440;28;20030;-83
2022/05/21 02:16:34;;;;;;;12.65;3.05;;;12.70;99.90;;;;;;5017624;28;20022;-84
2022/05/21 02:19:02;;;;;;;16.67;3.45;;;12.60;99.90;;;;;;5017639;28;20011;-84
2022/05/21 02:21:28;;;;;;;18.45;3.80;;;12.70;99.90;;;;;;5017307;28;20010;-84
2022/05/21 02:23:54;;;;;;;9.90;3.42;;;12.70;99.90;;;;;;5014418;28;20025;-84
2022/05/21 02:26:20;;;;;;;12.57;4.00;;;12.70;99.90;;;;;;5037108;28;20077;-83
2022/05/21 02:28:46;;;;;;;13.55;3.25;;;12.80;99.90;;;;;;5037201;28;20026;-83
2022/05/21 02:31:11;;;;;;;11.82;3.10;;;12.80;99.90;;;;;;5037089;28;20055;-83
2022/05/21 02:33:37;;;;;;;14.00;3.40;;;12.70;99.90;;;;;;5026019;28;20019;-83
2022/05/21 02:36:03;;;;;;;12.55;3.88;;;12.80;99.90;;;;;;5000662;28;20014;-83
2022/05/21 02:41:14;;;;;;;21.65;3.65;;;12.80;99.90;;;;;;5017332;28;20017;-84
2022/05/21 02:43:40;;;;;;;15.90;3.42;;;12.80;99.90;;;;;;5017021;28;20164;-84
2022/05/21 02:46:06;;;;;;;15.15;3.55;;;12.80;99.90;;;;;;5000446;28;20081;-83
2022/05/21 02:48:32;;;;;;;11.32;2.35;;;12.80;99.90;;;;;;5017385;28;20310;-83
2022/05/21 02:50:58;;;;;;;11.25;3.20;;;12.80;99.90;;;;;;5017023;28;20030;-83
2022/05/21 02:53:23;;;;;;;21.13;3.28;;;12.70;99.90;;;;;;5017059;28;20077;-83
2022/05/21 02:55:52;;;;;;;11.95;2.50;;;12.70;99.90;;;;;;5016882;28;20042;-84
2022/05/21 02:58:18;;;;;;;11.07;2.67;;;12.70;99.90;;;;;;5017274;28;20010;-84
2022/05/21 03:00:45;;;;;;;9.48;2.28;;;12.70;99.90;;;;;;5017081;28;20041;-84
2022/05/21 03:03:11;;;;;;;9.00;2.25;;;12.60;99.90;;;;;;5001959;28;20029;-84
2022/05/21 03:05:36;;;;;;;8.50;2.20;;;12.50;99.90;;;;;;5003934;28;20018;-83
2022/05/21 03:10:20;;;;;;;10.52;2.30;;;12.50;99.90;;;;;;5020963;28;20029;-83
2022/05/21 03:10:55;;;;;;;6.57;1.95;;;12.60;99.90;;;;;;5020459;28;20010;-82
2022/05/21 03:13:21;;;;;;;12.15;2.38;;;12.50;99.90;;;;;;5020645;28;20082;-83
2022/05/21 03:15:47;;;;;;;9.23;2.55;;;12.50;99.90;;;;;;5020321;28;20018;-83
2022/05/21 03:18:14;;;;;;;11.48;3.00;;;12.40;99.90;;;;;;5020132;28;20034;-82
2022/05/21 03:20:41;;;;;;;15.13;2.92;;;12.40;99.90;;;;;;5020568;28;20019;-82
2022/05/21 03:23:08;;;;;;;13.98;3.22;;;12.30;99.90;;;;;;5011395;28;20030;-82
2022/05/21 03:25:34;;;;;;;9.75;2.60;;;12.30;99.90;;;;;;5040043;28;20025;-83
2022/05/21 03:28:00;;;;;;;8.10;2.08;;;12.30;99.90;;;;;;5031104;28;20097;-83
2022/05/21 03:30:27;;;;;;;13.80;2.83;;;12.30;99.90;;;;;;5020363;28;20015;-82
2022/05/21 03:32:53;;;;;;;9.90;2.10;;;12.30;99.90;;;;;;5002810;28;20014;-83
2022/05/21 03:35:20;;;;;;;11.60;2.85;;;12.30;99.90;;;;;;4999509;28;20030;-83
2022/05/21 03:37:47;;;;;;;13.95;2.13;;;12.30;99.90;;;;;;5019851;28;20026;-83
2022/05/21 03:40:20;;;;;;;7.63;2.78;;;12.20;99.90;;;;;;5018942;28;20342;-83
2022/05/21 03:42:45;;;;;;;10.25;2.58;;;12.20;99.90;;;;;;5019110;28;20010;-83
2022/05/21 03:45:12;;;;;;;12.55;2.55;;;12.20;99.90;;;;;;5019336;28;20091;-83
2022/05/21 03:47:41;;;;;;;11.93;2.80;;;12.20;99.90;;;;;;5004739;28;20059;-83
2022/05/21 03:50:08;;;;;;;9.73;2.10;;;12.20;99.90;;;;;;4999740;28;20019;-83
2022/05/21 03:52:33;;;;;;;12.52;2.95;;;12.30;99.90;;;;;;4999983;28;20037;-83
2022/05/21 03:54:59;;;;;;;9.65;2.05;;;12.20;99.90;;;;;;4999006;28;20055;-83
2022/05/21 03:57:24;;;;;;;12.38;2.72;;;12.20;99.90;;;;;;4996854;28;20010;-82
2022/05/21 03:59:50;;;;;;;6.20;1.80;;;12.20;99.90;;;;;;4998113;28;20090;-83
2022/05/21 04:02:15;;;;;;;8.98;2.10;;;12.10;99.90;;;;;;5012772;28;20015;-83
2022/05/21 04:04:41;;;;;;;5.70;2.00;;;12.10;99.90;;;;;;5017052;28;20050;-83
2022/05/21 04:07:07;;;;;;;8.00;1.95;;;12.10;99.90;;;;;;5017036;28;20037;-83
2022/05/21 04:09:33;;;;;;;7.70;1.90;;;12.10;99.90;;;;;;5017579;28;20019;-83
2022/05/21 04:11:58;;;;;;;9.27;1.90;;;12.20;99.90;;;;;;4996641;28;20027;-83
2022/05/21 04:14:29;;;;;;;7.82;2.10;;;12.40;99.90;;;;;;5014925;28;20037;-83
2022/05/21 04:16:56;;;;;;;10.05;2.00;;;12.50;99.90;;;;;;5014190;28;20035;-84
2022/05/21 04:19:22;;;;;;;13.30;2.58;;;12.50;99.90;;;;;;4998575;28;20014;-83
2022/05/21 04:21:47;;;;;;;10.65;2.25;;;12.40;99.90;;;;;;5015798;28;20070;-83
2022/05/21 04:24:13;;;;;;;11.65;2.50;;;12.40;99.90;;;;;;5018841;28;20018;-83
2022/05/21 04:26:39;;;;;;;10.00;2.17;;;12.40;99.90;;;;;;5015562;28;20019;-83
2022/05/21 04:29:04;;;;;;;8.40;1.35;;;12.60;99.90;;;;;;5018951;28;20011;-83
2022/05/21 04:31:30;;;;;;;11.15;1.70;;;13.00;99.90;;;;;;5016245;28;20029;-83
2022/05/21 04:33:56;;;;;;;7.20;1.60;;;13.10;99.90;;;;;;5018821;28;20037;-83
2022/05/21 04:36:22;;;;;;;10.85;1.98;;;12.80;99.90;;;;;;5015019;28;20022;-83
2022/05/21 04:38:51;;;;;;;9.55;1.88;;;14.30;99.90;;;;;;5013458;28;20006;-83
2022/05/21 04:41:17;;;;;;;9.68;1.70;;;14.70;99.90;;;;;;5013644;28;20016;-83
2022/05/21 04:43:44;;;;;;;9.60;1.85;;;13.60;99.90;;;;;;4991617;28;20022;-83
2022/05/21 04:46:11;;;;;;;9.13;2.22;;;13.30;99.90;;;;;;5001343;28;20035;-84
2022/05/21 04:48:37;;;;;;;11.23;1.75;;;13.90;99.90;;;;;;4996697;28;20014;-83
2022/05/21 04:51:04;;;;;;;12.95;1.90;;;13.50;99.90;;;;;;5018185;28;20018;-83
2022/05/21 04:53:31;;;;;;;13.10;2.08;;;13.40;99.90;;;;;;5009876;28;20007;-83
2022/05/21 04:55:57;;;;;;;11.75;2.08;;;15.00;99.90;;;;;;5017924;28;20034;-84
2022/05/21 04:58:22;;;;;;;12.45;2.67;;;16.60;99.90;;;;;;5013560;28;20029;-83
2022/05/21 05:00:48;;;;;;;13.20;2.13;;;15.40;29.60;;;;;;5002307;28;20324;-83
2022/05/21 05:03:16;;;;;;;11.75;2.33;;;15.70;29.70;;;;;;4994750;28;20010;-82
2022/05/21 05:05:43;;;;;;;9.55;1.60;;;16.50;1.00;;;;;;5001962;28;20041;-83
2022/05/21 05:08:10;;;;;;;8.45;1.70;;;16.70;1.00;;;;;;5002090;28;20042;-83
2022/05/21 05:10:36;;;;;;;10.95;1.90;;;15.60;1.00;;;;;;5018918;28;20022;-83
2022/05/21 05:13:03;;;;;;;8.90;1.80;;;16.30;1.00;;;;;;5018830;28;20074;-84
2022/05/21 05:15:29;;;;;;;11.00;1.98;;;16.60;1.00;;;;;;5018514;28;20025;-83
2022/05/21 05:18:09;;;;;;;5.78;1.73;;;16.80;1.00;;;;;;5018198;28;20018;-83
2022/05/21 05:20:35;;;;;;;7.72;1.38;;;16.10;1.00;;;;;;5000831;28;20020;-83
2022/05/21 05:23:00;;;;;;;14.90;2.40;;;17.70;99.90;;;;;;5001583;28;20038;-83
2022/05/21 05:25:26;;;;;;;6.60;1.50;;;18.00;99.90;;;;;;5018189;28;20023;-84
2022/05/21 05:27:52;;;;;;;9.52;1.65;;;19.70;99.90;;;;;;4992288;28;20018;-84
2022/05/21 05:30:19;;;;;;;6.68;1.55;;;20.80;99.90;;;;;;5013973;28;20017;-84
2022/05/21 05:32:45;;;;;;;9.75;1.77;;;20.90;99.90;;;;;;4990830;28;20010;-84
2022/05/21 05:35:12;;;;;;;6.03;1.35;;;20.20;99.90;;;;;;5009335;28;20027;-83
2022/05/21 05:37:38;;;;;;;9.35;1.85;;;21.10;99.90;;;;;;5009837;28;20029;-84
2022/05/21 05:40:06;;;;;;;10.75;2.22;;;22.60;99.90;;;;;;4989527;28;20351;-83
2022/05/21 05:42:35;;;;;;;5.63;1.65;;;23.80;99.90;;;;;;5001661;28;20091;-83
2022/05/21 05:45:01;;;;;;;9.18;1.45;;;25.20;99.90;;;;;;4999621;28;20434;-82
2022/05/21 05:47:27;;;;;;;8.00;1.27;;;25.40;99.90;;;;;;4977947;28;20031;-82
2022/05/21 05:49:53;;;;;;;7.00;1.70;;;25.70;99.90;;;;;;4978043;28;20026;-83
2022/05/21 05:52:19;;;;;;;10.35;1.83;;;26.10;99.90;;;;;;4982306;28;20022;-87
2022/05/21 05:54:46;;;;;;;7.32;1.85;;;27.50;99.90;;;;;;5011902;28;20057;-85
2022/05/21 05:57:12;;;;;;;6.95;1.52;;;27.20;99.90;;;;;;4980926;28;20034;-84
2022/05/21 05:59:50;;;;;;;11.13;1.48;;;26.40;99.90;;;;;;5006566;28;20076;-84
2022/05/21 06:05:04;;;;;;;5.25;1.33;;;26.70;99.90;;;;;;5016034;28;20049;-84
2022/05/21 06:07:30;;;;;;;7.90;1.23;;;27.40;99.90;;;;;;5002122;28;20010;-84
2022/05/21 06:10:06;;;;;;;8.48;1.30;;;27.90;99.90;;;;;;5006587;28;20037;-85
2022/05/21 06:12:31;;;;;;;9.88;1.98;;;27.10;99.90;;;;;;4997718;28;20024;-84
2022/05/21 06:14:58;;;;;;;7.78;1.30;;;28.90;99.90;;;;;;4997460;28;20038;-83
2022/05/21 06:17:25;;;;;;;7.40;1.80;;;27.60;99.90;;;;;;4997806;28;20026;-84
2022/05/21 06:19:51;;;;;;;8.02;1.73;;;26.70;99.90;;;;;;4995396;28;20437;-84
2022/05/21 06:22:17;;;;;;;8.70;1.48;;;28.20;99.90;;;;;;4996384;28;20026;-84
2022/05/21 06:24:42;;;;;;;5.63;1.17;;;27.70;99.90;;;;;;4999889;28;20474;-85
2022/05/21 06:27:09;;;;;;;8.48;1.67;;;28.60;99.90;;;;;;4984478;28;20029;-85
2022/05/21 06:29:38;;;;;;;4.90;1.30;;;28.40;99.90;;;;;;4983113;28;20042;-86
2022/05/21 06:32:04;;;;;;;6.82;1.38;;;25.60;99.90;;;;;;4997779;28;20489;-85
2022/05/21 06:34:31;;;;;;;5.85;1.65;;;23.80;99.90;;;;;;4977435;28;20516;-85
2022/05/21 06:37:03;;;;;;;5.25;1.20;;;22.60;99.90;;;;;;4976166;28;20467;-85
2022/05/21 06:39:31;;;;;;;6.90;1.67;;;22.50;99.90;;;;;;4986723;28;20038;-85
2022/05/21 06:41:56;;;;;;;11.32;1.88;;;21.90;99.90;;;;;;5007173;28;20021;-84
2022/05/21 06:44:22;;;;;;;11.02;1.80;;;23.20;99.90;;;;;;4999490;28;20035;-83
2022/05/21 06:46:47;;;;;;;7.35;1.52;;;23.30;99.90;;;;;;5004311;28;20072;-83
2022/05/21 06:49:13;;;;;;;4.35;1.35;;;22.10;99.90;;;;;;4995802;28;20023;-83
2022/05/21 06:51:38;;;;;;;7.85;1.95;;;21.00;99.90;;;;;;4996703;28;20031;-82
2022/05/21 06:54:06;;;;;;;8.80;1.60;;;22.50;99.90;;;;;;4981038;28;20030;-86
2022/05/21 06:56:32;;;;;;;10.70;1.60;;;23.30;99.90;;;;;;4996061;28;20386;-86
2022/05/21 06:59:00;;;;;;;5.18;1.30;;;22.80;99.90;;;;;;4996503;28;20007;-85
2022/05/21 07:01:26;;;;;;;9.10;1.95;;;25.70;99.90;;;;;;4999453;28;20068;-85
2022/05/21 07:03:51;;;;;;;9.98;1.98;;;24.10;99.90;;;;;;4995286;28;20010;-85
2022/05/21 07:09:01;;;;;;;7.38;1.65;;;28.10;99.90;;;;;;5011370;28;20037;-88
2022/05/21 07:11:27;;;;;;;7.88;1.42;;;26.60;99.90;;;;;;5013950;28;20015;-86
2022/05/21 07:13:52;;;;;;;9.25;1.50;;;24.50;99.90;;;;;;4999280;28;20038;-85
2022/05/21 07:16:18;;;;;;;9.05;2.03;;;22.10;99.90;;;;;;4984976;28;20033;-86
2022/05/21 07:18:44;;;;;;;10.85;1.73;;;23.10;99.90;;;;;;5005404;28;20042;-87
2022/05/21 07:21:15;;;;;;;5.63;1.50;;;22.60;99.90;;;;;;4995887;28;20030;-87
2022/05/21 07:23:41;;;;;;;10.23;1.55;;;21.30;99.90;;;;;;5003523;28;20030;-87
2022/05/21 07:26:07;;;;;;;7.38;1.90;;;21.40;99.90;;;;;;5009295;28;20018;-88
2022/05/21 07:28:33;;;;;;;7.97;1.50;;;22.10;99.90;;;;;;4995544;28;20023;-86
2022/05/21 07:30:59;;;;;;;9.40;1.80;;;22.30;99.90;;;;;;4994689;28;20049;-85
2022/05/21 07:33:26;;;;;;;8.75;1.30;;;23.20;99.90;;;;;;4980242;28;20100;-85
2022/05/21 07:35:52;;;;;;;8.70;1.88;;;23.40;99.90;;;;;;4998797;28;20090;-86
2022/05/21 07:38:18;;;;;;;7.80;1.65;;;22.10;99.90;;;;;;5000251;28;20015;-86
2022/05/21 07:40:47;;;;;;;10.23;2.20;;;23.60;99.90;;;;;;4999610;28;20007;-86
2022/05/21 07:43:17;;;;;;;6.65;1.60;;;27.30;99.90;;;;;;4997543;28;20007;-86
2022/05/21 07:45:43;;;;;;;5.28;1.70;;;25.00;99.90;;;;;;5008647;28;20047;-85
2022/05/21 07:48:12;;;;;;;7.50;1.25;;;25.90;99.90;;;;;;5011229;28;20015;-85
2022/05/21 07:50:40;;;;;;;8.48;1.65;;;24.60;99.90;;;;;;4999822;28;20033;-85
2022/05/21 07:53:20;;;;;;;9.57;2.15;;;26.70;99.90;;;;;;5019889;28;20314;-85
2022/05/21 07:55:51;;;;;;;7.82;2.05;;;29.10;99.90;;;;;;5022792;28;20038;-85
2022/05/21 07:58:17;;;;;;;6.00;1.60;;;27.40;99.90;;;;;;5001626;28;20034;-87
2022/05/21 08:00:42;;;;;;;10.82;2.08;;;28.10;99.90;;;;;;4997472;28;20035;-85
2022/05/21 08:03:11;;;;;;;8.65;1.92;;;28.10;99.90;;;;;;4987490;28;20014;-85
2022/05/21 08:05:38;;;;;;;7.80;1.70;;;28.20;99.90;;;;;;4994053;28;20011;-84
2022/05/21 08:08:05;;;;;;;8.93;2.40;;;26.10;99.90;;;;;;5001052;28;20018;-84
2022/05/21 08:10:31;;;;;;;9.00;1.98;;;27.00;99.90;;;;;;5016574;28;20095;-86
2022/05/21 08:12:58;;;;;;;8.25;2.03;;;28.40;99.90;;;;;;4995661;28;20031;-87
2022/05/21 08:15:24;;;;;;;7.28;1.90;;;29.10;99.90;;;;;;4981621;28;20027;-91
2022/05/21 08:17:49;;;;;;;7.95;2.10;;;26.10;99.90;;;;;;4977054;28;20031;-87
2022/05/21 08:20:16;;;;;;;8.00;2.05;;;29.20;99.90;;;;;;4977027;28;20042;-92
2022/05/21 08:28:17;;;;;;;8.27;1.52;;;29.60;99.90;;;;;;5009100;28;20022;-93
2022/05/21 08:30:45;;;;;;;5.97;1.50;;;29.30;99.90;;;;;;4991112;28;20049;-90
2022/05/21 08:33:11;;;;;;;10.90;1.83;;;28.40;99.90;;;;;;4993183;28;20034;-94
2022/05/21 08:35:38;;;;;;;10.15;1.83;;;28.90;99.90;;;;;;4990716;28;20029;-90
2022/05/21 08:38:05;;;;;;;8.52;1.75;;;30.80;99.90;;;;;;4985623;28;20059;-89
2022/05/21 08:41:03;;;;;;;5.32;1.80;;;28.90;99.90;;;;;;4980903;28;20030;-87
2022/05/21 08:43:55;;;;;;;8.07;1.80;;;26.80;99.90;;;;;;5002909;28;20541;-87
2022/05/21 08:46:59;;;;;;;8.20;1.77;;;25.60;99.90;;;;;;4987221;28;20030;-92
2022/05/21 08:49:39;;;;;;;9.43;1.70;;;28.30;99.90;;;;;;4975829;28;20035;-89
2022/05/21 08:52:29;;;;;;;5.43;1.23;;;32.90;99.90;;;;;;4974928;28;20026;-90
2022/05/21 08:54:58;;;;;;;11.55;1.90;;;33.50;99.90;;;;;;4977839;28;20059;-85
2022/05/21 08:57:40;;;;;;;5.28;1.67;;;31.70;99.90;;;;;;5009846;28;20044;-91
2022/05/21 09:00:20;;;;;;;9.48;2.10;;;30.90;99.90;;;;;;5023836;28;20041;-90
2022/05/21 09:02:47;;;;;;;8.40;2.10;;;32.60;99.90;;;;;;5008805;28;20502;-90
2022/05/21 09:05:15;;;;;;;8.13;1.60;;;29.10;99.90;;;;;;5010946;28;20030;-89
2022/05/21 09:08:12;;;;;;;10.00;1.83;;;27.20;99.90;;;;;;4995898;28;20027;-89
2022/05/21 09:11:01;;;;;;;10.35;2.38;;;29.40;99.90;;;;;;4976586;28;20035;-89
2022/05/21 09:13:58;;;;;;;7.38;1.85;;;29.80;99.90;;;;;;4989971;28;20029;-89
2022/05/21 09:19:08;;;;;;;10.18;1.60;;;32.30;99.90;;;;;;5006152;28;20046;-85
2022/05/21 09:21:39;;;;;;;7.35;2.15;;;34.20;99.90;;;;;;5014908;28;20014;-86
2022/05/21 09:24:07;;;;;;;6.53;1.67;;;28.50;99.90;;;;;;5014012;28;20025;-84
2022/05/21 09:26:45;;;;;;;8.98;2.22;;;26.80;99.90;;;;;;5016646;28;20033;-84
2022/05/21 09:29:26;;;;;;;8.73;1.80;;;27.40;99.90;;;;;;5017216;28;20026;-84
2022/05/21 09:31:54;;;;;;;7.53;2.10;;;28.30;99.90;;;;;;5031997;28;20022;-84
2022/05/21 09:34:24;;;;;;;7.72;1.60;;;27.40;99.90;;;;;;5022158;28;20098;-85
2022/05/21 09:36:50;;;;;;;6.63;1.83;;;25.90;99.90;;;;;;5009597;28;20026;-80
2022/05/21 09:39:38;;;;;;;8.00;1.85;;;24.20;99.90;;;;;;5006121;28;20019;-80
2022/05/21 09:45:22;;;;;;;8.15;2.38;;;23.50;99.90;;;;;;4990586;28;20041;-79
2022/05/21 09:48:11;;;;;;;6.55;1.80;;;26.10;99.90;;;;;;4998307;28;20493;-87
2022/05/21 09:50:45;;;;;;;10.52;2.42;;;24.90;99.90;;;;;;4991218;28;20038;-85
2022/05/21 09:53:20;;;;;;;12.15;2.13;;;23.20;99.90;;;;;;4998390;28;20065;-87
2022/05/21 09:56:07;;;;;;;5.47;1.83;;;23.00;99.90;;;;;;4997906;28;20058;-88
2022/05/21 09:58:36;;;;;;;8.25;2.25;;;26.90;99.90;;;;;;4997642;28;20031;-86
2022/05/21 10:01:03;;;;;;;9.23;2.17;;;24.80;99.90;;;;;;4990335;28;20695;-87
2022/05/21 10:03:47;;;;;;;6.93;1.60;;;23.80;99.90;;;;;;4966820;28;20050;-86
2022/05/21 10:06:30;;;;;;;5.88;1.92;;;23.90;99.90;;;;;;4979812;28;20029;-86
2022/05/21 10:12:08;;;;;;;7.20;1.73;;;23.60;99.90;;;;;;4982288;28;20194;-86
2022/05/21 10:14:37;;;;;;;10.85;2.28;;;24.90;99.90;;;;;;4979959;28;20026;-86
2022/05/21 10:17:07;;;;;;;6.07;2.10;;;25.00;99.90;;;;;;4980826;28;20026;-86
2022/05/21 10:20:10;;;;;;;6.55;1.73;;;24.80;99.90;;;;;;4982214;28;20042;-86
2022/05/21 10:23:13;;;;;;;10.40;1.90;;;23.20;99.90;;;;;;4984344;28;20026;-86
2022/05/21 10:26:04;;;;;;;10.98;2.15;;;22.70;99.90;;;;;;4981116;28;20423;-87
2022/05/21 10:29:02;;;;;;;11.05;2.42;;;23.50;99.90;;;;;;4978554;28;20430;-86
2022/05/21 10:31:39;;;;;;;6.80;1.85;;;22.60;99.90;;;;;;4961142;28;20740;-86
2022/05/21 10:34:27;;;;;;;10.52;2.08;;;24.30;99.90;;;;;;4962431;28;20042;-87
2022/05/21 10:37:03;;;;;;;7.40;2.00;;;22.90;99.90;;;;;;4947275;28;20026;-86
2022/05/21 10:39:58;;;;;;;8.65;2.15;;;24.40;99.90;;;;;;4978148;28;20026;-86
2022/05/21 10:42:33;;;;;;;8.27;1.60;;;23.20;99.90;;;;;;4981449;28;20026;-88
2022/05/21 10:45:22;;;;;;;5.72;1.58;;;22.30;99.90;;;;;;4978030;28;20049;-89
2022/05/21 10:48:34;;;;;;;10.93;2.30;;;25.00;99.90;;;;;;4977494;28;20030;-89
2022/05/21 10:51:02;;;;;;;5.47;1.60;;;25.60;99.90;;;;;;4966540;28;20039;-90
2022/05/21 10:54:04;;;;;;;7.05;1.80;;;27.10;99.90;;;;;;4977302;28;20085;-89
2022/05/21 10:56:56;;;;;;;8.98;2.10;;;27.90;99.90;;;;;;4995546;28;20577;-89
2022/05/21 10:59:47;;;;;;;6.43;1.30;;;28.60;99.90;;;;;;4994817;28;20122;-89
2022/05/21 11:02:53;;;;;;;8.43;1.90;;;27.70;99.90;;;;;;4994230;28;20541;-89
2022/05/21 11:05:32;;;;;;;9.60;2.00;;;27.60;99.90;;;;;;4994257;28;20057;-89
2022/05/21 11:08:09;;;;;;;6.78;2.20;;;27.80;99.90;;;;;;4995525;28;20033;-89
2022/05/21 11:10:45;;;;;;;3.85;1.42;;;26.00;99.90;;;;;;4977407;28;20030;-89
2022/05/21 11:13:27;;;;;;;11.20;2.30;;;25.40;99.90;;;;;;4977084;28;20421;-88
2022/05/21 11:16:10;;;;;;;5.47;1.60;;;24.70;99.90;;;;;;4994496;28;20046;-88
2022/05/21 11:19:01;;;;;;;7.72;1.60;;;24.10;99.90;;;;;;4994450;28;20100;-88
2022/05/21 11:21:42;;;;;;;7.43;1.55;;;24.20;99.90;;;;;;4973846;28;20030;-90
2022/05/21 11:24:28;;;;;;;10.52;2.00;;;24.00;99.90;;;;;;4996165;28;20101;-90
2022/05/21 11:27:08;;;;;;;7.88;2.03;;;24.40;99.90;;;;;;4998536;28;20022;-89
2022/05/21 11:29:45;;;;;;;;;;;24.20;99.90;;;;;;4999361;28;20034;-84
2022/05/21 11:37:58;;;;;;;6.97;1.75;;;22.80;99.90;;;;;;5005228;28;20042;-90
2022/05/21 11:40:51;;;;;;;11.07;2.45;;;22.90;99.90;;;;;;5012186;28;20549;-89
2022/05/21 11:43:19;;;;;;;5.63;1.33;;;23.30;99.90;;;;;;5020214;28;20026;-86
2022/05/21 11:46:10;;;;;;;9.43;2.25;;;23.40;99.90;;;;;;5019924;28;20041;-87
2022/05/21 11:48:36;;;;;;;12.80;1.98;;;22.70;99.90;;;;;;5020232;28;20033;-88
2022/05/21 11:51:16;;;;;;;7.55;1.60;;;22.50;99.90;;;;;;5020636;28;20019;-86
2022/05/21 11:53:44;;;;;;;6.38;2.00;;;22.40;99.90;;;;;;5004231;28;20063;-87
2022/05/21 11:56:11;;;;;;;9.80;1.92;;;22.20;99.90;;;;;;5014122;28;20089;-90
2022/05/21 11:58:58;;;;;;;5.05;1.30;;;22.50;99.90;;;;;;5012149;28;20026;-90
2022/05/21 12:01:36;;;;;;;6.25;1.73;;;22.70;99.90;;;;;;5010669;28;20589;-88
2022/05/21 12:04:01;;;;;;;11.00;2.13;;;22.80;99.90;;;;;;5013387;28;20053;-89
2022/05/21 12:06:38;;;;;;;12.60;2.20;;;22.50;99.90;;;;;;5011748;28;20069;-88
2022/05/21 12:09:24;;;;;;;9.57;1.90;;;22.70;99.90;;;;;;5008504;28;20096;-90
2022/05/21 12:11:50;;;;;;;6.97;1.52;;;22.30;99.90;;;;;;5006670;28;20022;-88
2022/05/21 12:14:27;;;;;;;6.70;1.70;;;22.00;99.90;;;;;;5016481;28;20090;-85
2022/05/21 12:16:56;;;;;;;10.68;1.98;;;21.90;99.90;;;;;;5020043;28;20015;-85
2022/05/21 12:19:44;;;;;;;10.68;2.13;;;22.20;99.90;;;;;;5019685;28;20018;-85
2022/05/21 12:22:10;;;;;;;9.80;2.00;;;21.80;99.90;;;;;;5019413;28;20042;-84
2022/05/21 12:24:43;;;;;;;10.93;2.55;;;21.50;99.90;;;;;;5019382;28;20026;-84
2022/05/21 12:27:24;;;;;;;9.15;2.17;;;21.60;99.90;;;;;;5020419;28;20024;-84
2022/05/21 12:30:01;;;;;;;9.73;2.15;;;21.90;99.90;;;;;;5020251;28;20014;-85
2022/05/21 12:32:27;;;;;;;9.43;2.03;;;21.50;99.90;;;;;;5013783;28;20102;-89
2022/05/21 12:35:05;;;;;;;9.85;2.05;;;21.50;99.90;;;;;;5001403;28;20027;-90
2022/05/21 12:37:43;;;;;;;10.68;2.30;;;22.10;99.90;;;;;;5008335;28;20050;-90
2022/05/21 12:40:09;;;;;;;8.27;1.98;;;21.80;99.90;;;;;;5005714;28;20022;-91
2022/05/21 12:42:43;;;;;;;7.15;1.83;;;21.80;99.90;;;;;;5005796;28;20029;-90
2022/05/21 12:45:28;;;;;;;6.72;2.10;;;22.30;99.90;;;;;;5004264;28;20032;-91
2022/05/21 12:48:20;;;;;;;9.10;2.10;;;21.70;99.90;;;;;;5002735;28;20493;-91
2022/05/21 12:50:49;;;;;;;8.00;2.38;;;21.80;99.90;;;;;;5002200;28;20116;-90
2022/05/21 12:53:42;;;;;;;11.05;2.30;;;21.70;99.90;;;;;;5003698;28;20462;-89
2022/05/21 12:56:33;;;;;;;6.60;1.73;;;22.10;99.90;;;;;;5006669;28;20053;-89
2022/05/21 12:59:16;;;;;;;11.07;2.72;;;21.60;99.90;;;;;;5012226;28;20026;-89
2022/05/21 13:02:01;;;;;;;10.05;2.08;;;22.20;99.90;;;;;;5013904;28;20049;-90
2022/05/21 13:04:31;;;;;;;9.38;2.17;;;22.40;99.90;;;;;;5011220;28;20088;-89
2022/05/21 13:07:07;;;;;;;6.75;1.88;;;22.10;99.90;;;;;;5008456;28;20019;-87
2022/05/21 13:09:38;;;;;;;5.05;1.77;;;22.30;99.90;;;;;;5014645;28;20031;-91
2022/05/21 13:12:13;;;;;;;9.35;1.90;;;21.90;99.90;;;;;;5012348;28;20042;-90
2022/05/21 13:14:39;;;;;;;6.18;1.65;;;21.90;99.90;;;;;;5009188;28;20034;-89
2022/05/21 13:17:13;;;;;;;8.70;1.58;;;21.60;99.90;;;;;;5008583;28;20053;-90
2022/05/21 13:19:58;;;;;;;6.50;2.30;;;21.80;99.90;;;;;;5013919;28;20026;-89
2022/05/21 13:22:53;;;;;;;5.85;1.85;;;22.20;99.90;;;;;;5010397;28;20027;-89
2022/05/21 13:25:18;;;;;;;11.27;1.60;;;21.80;99.90;;;;;;5011888;28;20018;-89
2022/05/21 13:27:50;;;;;;;8.95;2.03;;;22.50;99.90;;;;;;4992707;28;20058;-87
2022/05/21 13:30:19;;;;;;;11.20;2.28;;;21.90;99.90;;;;;;4996959;28;20027;-89
2022/05/21 13:32:51;;;;;;;9.83;2.00;;;21.70;99.90;;;;;;5033007;28;20016;-88